sensor_id;sensor_type;location;lat;lon;timestamp;P1;durP1;ratioP1;P2;durP2;ratioP2
37280;SDS011;23169;41.804;12.596;2023-02-07T00:01:44;12.57;;;5.00;;
37280;SDS011;23169;41.804;12.596;2023-02-07T00:04:11;10.32;;;5.15;;
37280;SDS011;23169;41.804;12.596;2023-02-07T00:06:39;12.85;;;4.80;;
37280;SDS011;23169;41.804;12.596;2023-02-07T00:11:37;11.68;;;5.13;;
37280;SDS011;23169;41.804;12.596;2023-02-07T00:14:07;9.73;;;4.97;;
37280;SDS011;23169;41.804;12.596;2023-02-07T00:16:36;10.13;;;4.45;;
37280;SDS011;23169;41.804;12.596;2023-02-07T00:19:04;9.68;;;3.95;;
37280;SDS011;23169;41.804;12.596;2023-02-07T00:21:32;10.90;;;4.80;;
37280;SDS011;23169;41.804;12.596;2023-02-07T00:24:00;11.23;;;4.72;;
37280;SDS011;23169;41.804;12.596;2023-02-07T00:26:28;10.48;;;4.85;;
37280;SDS011;23169;41.804;12.596;2023-02-07T00:28:55;13.13;;;5.03;;
37280;SDS011;23169;41.804;12.596;2023-02-07T00:31:27;11.70;;;4.60;;
37280;SDS011;23169;41.804;12.596;2023-02-07T00:33:57;11.30;;;4.82;;
37280;SDS011;23169;41.804;12.596;2023-02-07T00:36:27;9.70;;;4.63;;
37280;SDS011;23169;41.804;12.596;2023-02-07T00:38:57;8.90;;;3.90;;
37280;SDS011;23169;41.804;12.596;2023-02-07T00:41:26;9.85;;;3.83;;
37280;SDS011;23169;41.804;12.596;2023-02-07T00:43:54;7.55;;;4.03;;
37280;SDS011;23169;41.804;12.596;2023-02-07T00:46:22;7.45;;;4.07;;
37280;SDS011;23169;41.804;12.596;2023-02-07T00:48:50;6.82;;;4.07;;
37280;SDS011;23169;41.804;12.596;2023-02-07T00:51:18;6.95;;;4.28;;
37280;SDS011;23169;41.804;12.596;2023-02-07T00:56:14;5.68;;;3.45;;
37280;SDS011;23169;41.804;12.596;2023-02-07T00:58:43;8.00;;;3.65;;
37280;SDS011;23169;41.804;12.596;2023-02-07T01:01:10;10.48;;;4.25;;
37280;SDS011;23169;41.804;12.596;2023-02-07T01:03:39;9.18;;;3.88;;
37280;SDS011;23169;41.804;12.596;2023-02-07T01:06:08;8.73;;;3.78;;
37280;SDS011;23169;41.804;12.596;2023-02-07T01:08:47;8.38;;;3.90;;
37280;SDS011;23169;41.804;12.596;2023-02-07T01:11:22;8.38;;;3.70;;
37280;SDS011;23169;41.804;12.596;2023-02-07T01:13:50;7.20;;;3.67;;
37280;SDS011;23169;41.804;12.596;2023-02-07T01:16:22;8.52;;;4.18;;
37280;SDS011;23169;41.804;12.596;2023-02-07T01:18:54;8.75;;;3.95;;
37280;SDS011;23169;41.804;12.596;2023-02-07T01:21:24;13.32;;;4.95;;
37280;SDS011;23169;41.804;12.596;2023-02-07T01:23:55;13.45;;;5.30;;
37280;SDS011;23169;41.804;12.596;2023-02-07T01:26:25;9.98;;;4.60;;
37280;SDS011;23169;41.804;12.596;2023-02-07T01:28:56;12.88;;;5.30;;
37280;SDS011;23169;41.804;12.596;2023-02-07T01:31:24;7.65;;;4.32;;
37280;SDS011;23169;41.804;12.596;2023-02-07T01:33:54;12.95;;;4.55;;
37280;SDS011;23169;41.804;12.596;2023-02-07T01:36:25;7.47;;;3.88;;
37280;SDS011;23169;41.804;12.596;2023-02-07T01:38:55;9.40;;;4.15;;
37280;SDS011;23169;41.804;12.596;2023-02-07T01:41:25;7.40;;;3.90;;
37280;SDS011;23169;41.804;12.596;2023-02-07T01:43:55;8.68;;;4.28;;
37280;SDS011;23169;41.804;12.596;2023-02-07T01:46:24;6.03;;;3.83;;
37280;SDS011;23169;41.804;12.596;2023-02-07T01:48:54;10.38;;;4.13;;
37280;SDS011;23169;41.804;12.596;2023-02-07T01:51:26;8.95;;;3.88;;
37280;SDS011;23169;41.804;12.596;2023-02-07T01:53:58;8.30;;;4.10;;
37280;SDS011;23169;41.804;12.596;2023-02-07T01:56:31;7.03;;;4.13;;
37280;SDS011;23169;41.804;12.596;2023-02-07T01:59:01;8.07;;;4.05;;
37280;SDS011;23169;41.804;12.596;2023-02-07T02:01:32;9.88;;;4.07;;
37280;SDS011;23169;41.804;12.596;2023-02-07T02:04:03;12.75;;;4.40;;
37280;SDS011;23169;41.804;12.596;2023-02-07T02:06:32;13.73;;;4.57;;
37280;SDS011;23169;41.804;12.596;2023-02-07T02:09:07;15.25;;;4.78;;
37280;SDS011;23169;41.804;12.596;2023-02-07T02:11:48;12.55;;;4.43;;
37280;SDS011;23169;41.804;12.596;2023-02-07T02:17:08;10.63;;;4.63;;
37280;SDS011;23169;41.804;12.596;2023-02-07T02:31:22;16.60;;;6.00;;
37280;SDS011;23169;41.804;12.596;2023-02-07T02:34:05;12.25;;;5.30;;
37280;SDS011;23169;41.804;12.596;2023-02-07T02:47:45;7.95;;;4.55;;
37280;SDS011;23169;41.804;12.596;2023-02-07T02:50:26;11.27;;;4.95;;
37280;SDS011;23169;41.804;12.596;2023-02-07T02:52:56;10.77;;;5.10;;
37280;SDS011;23169;41.804;12.596;2023-02-07T02:58:13;12.85;;;4.97;;
37280;SDS011;23169;41.804;12.596;2023-02-07T03:12:31;11.43;;;4.88;;
37280;SDS011;23169;41.804;12.596;2023-02-07T03:20:22;9.50;;;4.43;;
37280;SDS011;23169;41.804;12.596;2023-02-07T03:22:57;8.52;;;4.40;;
37280;SDS011;23169;41.804;12.596;2023-02-07T03:25:26;10.63;;;4.45;;
37280;SDS011;23169;41.804;12.596;2023-02-07T03:27:57;7.45;;;3.88;;
37280;SDS011;23169;41.804;12.596;2023-02-07T03:30:27;8.35;;;4.07;;
37280;SDS011;23169;41.804;12.596;2023-02-07T03:33:00;9.32;;;4.18;;
37280;SDS011;23169;41.804;12.596;2023-02-07T03:35:36;9.32;;;3.85;;
37280;SDS011;23169;41.804;12.596;2023-02-07T03:38:34;10.48;;;3.80;;
37280;SDS011;23169;41.804;12.596;2023-02-07T03:41:25;6.95;;;3.75;;
37280;SDS011;23169;41.804;12.596;2023-02-07T03:43:58;5.38;;;3.40;;
37280;SDS011;23169;41.804;12.596;2023-02-07T03:46:34;9.25;;;3.53;;
37280;SDS011;23169;41.804;12.596;2023-02-07T03:49:04;7.28;;;3.72;;
37280;SDS011;23169;41.804;12.596;2023-02-07T03:51:38;5.35;;;3.22;;
37280;SDS011;23169;41.804;12.596;2023-02-07T03:54:07;5.32;;;3.00;;
37280;SDS011;23169;41.804;12.596;2023-02-07T03:56:36;6.68;;;3.35;;
37280;SDS011;23169;41.804;12.596;2023-02-07T03:59:04;6.63;;;3.53;;
37280;SDS011;23169;41.804;12.596;2023-02-07T04:01:33;5.63;;;2.95;;
37280;SDS011;23169;41.804;12.596;2023-02-07T04:04:08;8.77;;;3.25;;
37280;SDS011;23169;41.804;12.596;2023-02-07T04:06:37;5.20;;;2.78;;
37280;SDS011;23169;41.804;12.596;2023-02-07T04:09:05;3.72;;;2.42;;
37280;SDS011;23169;41.804;12.596;2023-02-07T04:11:34;6.78;;;2.95;;
37280;SDS011;23169;41.804;12.596;2023-02-07T04:14:02;5.00;;;2.63;;
37280;SDS011;23169;41.804;12.596;2023-02-07T04:16:31;6.78;;;3.28;;
37280;SDS011;23169;41.804;12.596;2023-02-07T04:18:59;5.97;;;2.78;;
37280;SDS011;23169;41.804;12.596;2023-02-07T04:21:28;5.43;;;2.90;;
37280;SDS011;23169;41.804;12.596;2023-02-07T04:23:56;5.95;;;2.92;;
37280;SDS011;23169;41.804;12.596;2023-02-07T04:26:24;4.93;;;2.80;;
37280;SDS011;23169;41.804;12.596;2023-02-07T04:28:54;9.50;;;3.45;;
37280;SDS011;23169;41.804;12.596;2023-02-07T04:31:23;5.38;;;3.42;;
37280;SDS011;23169;41.804;12.596;2023-02-07T04:33:51;3.92;;;2.80;;
37280;SDS011;23169;41.804;12.596;2023-02-07T04:36:19;7.28;;;3.83;;
37280;SDS011;23169;41.804;12.596;2023-02-07T04:38:51;6.15;;;3.00;;
37280;SDS011;23169;41.804;12.596;2023-02-07T04:41:20;5.40;;;3.03;;
37280;SDS011;23169;41.804;12.596;2023-02-07T04:43:49;8.55;;;3.67;;
37280;SDS011;23169;41.804;12.596;2023-02-07T04:46:17;7.13;;;3.28;;
37280;SDS011;23169;41.804;12.596;2023-02-07T04:48:47;7.85;;;3.63;;
37280;SDS011;23169;41.804;12.596;2023-02-07T04:51:15;7.15;;;3.75;;
37280;SDS011;23169;41.804;12.596;2023-02-07T04:53:44;5.15;;;3.05;;
37280;SDS011;23169;41.804;12.596;2023-02-07T04:56:12;5.18;;;3.13;;
37280;SDS011;23169;41.804;12.596;2023-02-07T04:58:40;8.02;;;3.05;;
37280;SDS011;23169;41.804;12.596;2023-02-07T05:01:09;6.28;;;2.78;;
37280;SDS011;23169;41.804;12.596;2023-02-07T05:03:38;5.60;;;2.78;;
37280;SDS011;23169;41.804;12.596;2023-02-07T05:06:06;7.65;;;3.08;;
37280;SDS011;23169;41.804;12.596;2023-02-07T05:08:36;6.45;;;3.20;;
37280;SDS011;23169;41.804;12.596;2023-02-07T05:11:04;7.57;;;4.00;;
37280;SDS011;23169;41.804;12.596;2023-02-07T05:13:33;8.70;;;3.55;;
37280;SDS011;23169;41.804;12.596;2023-02-07T05:16:02;8.40;;;3.45;;
37280;SDS011;23169;41.804;12.596;2023-02-07T05:18:31;6.20;;;3.28;;
37280;SDS011;23169;41.804;12.596;2023-02-07T05:20:59;7.75;;;3.55;;
37280;SDS011;23169;41.804;12.596;2023-02-07T05:23:29;7.20;;;3.40;;
37280;SDS011;23169;41.804;12.596;2023-02-07T05:25:57;8.30;;;3.65;;
37280;SDS011;23169;41.804;12.596;2023-02-07T05:28:26;6.13;;;3.42;;
37280;SDS011;23169;41.804;12.596;2023-02-07T05:30:54;8.88;;;3.88;;
37280;SDS011;23169;41.804;12.596;2023-02-07T05:33:23;4.63;;;3.05;;
37280;SDS011;23169;41.804;12.596;2023-02-07T05:35:51;6.10;;;3.58;;
37280;SDS011;23169;41.804;12.596;2023-02-07T05:38:20;6.05;;;3.38;;
37280;SDS011;23169;41.804;12.596;2023-02-07T05:40:49;6.00;;;3.30;;
37280;SDS011;23169;41.804;12.596;2023-02-07T05:43:17;9.55;;;3.60;;
37280;SDS011;23169;41.804;12.596;2023-02-07T05:45:48;6.80;;;3.67;;
37280;SDS011;23169;41.804;12.596;2023-02-07T05:48:17;6.20;;;3.00;;
37280;SDS011;23169;41.804;12.596;2023-02-07T05:50:46;5.97;;;3.03;;
37280;SDS011;23169;41.804;12.596;2023-02-07T05:53:15;9.60;;;3.45;;
37280;SDS011;23169;41.804;12.596;2023-02-07T05:55:43;7.30;;;3.90;;
37280;SDS011;23169;41.804;12.596;2023-02-07T05:58:11;9.02;;;3.95;;
37280;SDS011;23169;41.804;12.596;2023-02-07T06:00:40;7.78;;;4.10;;
37280;SDS011;23169;41.804;12.596;2023-02-07T06:03:09;9.60;;;4.22;;
37280;SDS011;23169;41.804;12.596;2023-02-07T06:05:38;10.50;;;4.70;;
37280;SDS011;23169;41.804;12.596;2023-02-07T06:08:06;12.00;;;4.50;;
37280;SDS011;23169;41.804;12.596;2023-02-07T06:10:35;13.65;;;6.10;;
37280;SDS011;23169;41.804;12.596;2023-02-07T06:13:03;20.88;;;7.53;;
37280;SDS011;23169;41.804;12.596;2023-02-07T06:15:31;37.05;;;16.00;;
37280;SDS011;23169;41.804;12.596;2023-02-07T06:18:00;35.47;;;16.00;;
37280;SDS011;23169;41.804;12.596;2023-02-07T06:20:29;38.47;;;20.00;;
37280;SDS011;23169;41.804;12.596;2023-02-07T06:22:58;36.00;;;17.48;;
37280;SDS011;23169;41.804;12.596;2023-02-07T06:25:26;32.63;;;14.35;;
37280;SDS011;23169;41.804;12.596;2023-02-07T06:27:55;27.95;;;13.05;;
37280;SDS011;23169;41.804;12.596;2023-02-07T06:30:24;23.70;;;10.70;;
37280;SDS011;23169;41.804;12.596;2023-02-07T06:32:52;23.25;;;9.52;;
37280;SDS011;23169;41.804;12.596;2023-02-07T06:35:20;21.67;;;9.70;;
37280;SDS011;23169;41.804;12.596;2023-02-07T06:37:49;20.65;;;8.88;;
37280;SDS011;23169;41.804;12.596;2023-02-07T06:40:17;17.27;;;7.82;;
37280;SDS011;23169;41.804;12.596;2023-02-07T06:42:45;18.88;;;7.43;;
37280;SDS011;23169;41.804;12.596;2023-02-07T06:45:14;16.50;;;7.53;;
37280;SDS011;23169;41.804;12.596;2023-02-07T06:47:43;18.58;;;7.78;;
37280;SDS011;23169;41.804;12.596;2023-02-07T06:50:11;19.10;;;7.50;;
37280;SDS011;23169;41.804;12.596;2023-02-07T06:52:40;17.27;;;8.07;;
37280;SDS011;23169;41.804;12.596;2023-02-07T06:55:08;23.08;;;8.75;;
37280;SDS011;23169;41.804;12.596;2023-02-07T06:57:37;20.83;;;8.13;;
37280;SDS011;23169;41.804;12.596;2023-02-07T07:00:05;17.65;;;7.60;;
37280;SDS011;23169;41.804;12.596;2023-02-07T07:02:34;17.13;;;6.78;;
37280;SDS011;23169;41.804;12.596;2023-02-07T07:05:03;15.20;;;6.93;;
37280;SDS011;23169;41.804;12.596;2023-02-07T07:07:32;19.08;;;7.43;;
37280;SDS011;23169;41.804;12.596;2023-02-07T07:10:00;14.60;;;6.03;;
37280;SDS011;23169;41.804;12.596;2023-02-07T07:12:29;12.57;;;5.38;;
37280;SDS011;23169;41.804;12.596;2023-02-07T07:14:58;11.60;;;5.20;;
37280;SDS011;23169;41.804;12.596;2023-02-07T07:17:26;12.20;;;5.18;;
37280;SDS011;23169;41.804;12.596;2023-02-07T07:19:55;14.32;;;5.82;;
37280;SDS011;23169;41.804;12.596;2023-02-07T07:22:24;10.20;;;4.80;;
37280;SDS011;23169;41.804;12.596;2023-02-07T07:24:53;11.65;;;5.03;;
37280;SDS011;23169;41.804;12.596;2023-02-07T07:27:21;9.73;;;4.40;;
37280;SDS011;23169;41.804;12.596;2023-02-07T07:29:49;12.50;;;5.53;;
37280;SDS011;23169;41.804;12.596;2023-02-07T07:32:18;15.27;;;6.20;;
37280;SDS011;23169;41.804;12.596;2023-02-07T07:34:46;12.68;;;5.45;;
37280;SDS011;23169;41.804;12.596;2023-02-07T07:37:16;14.30;;;5.43;;
37280;SDS011;23169;41.804;12.596;2023-02-07T07:39:45;16.83;;;5.93;;
37280;SDS011;23169;41.804;12.596;2023-02-07T07:42:13;12.63;;;5.50;;
37280;SDS011;23169;41.804;12.596;2023-02-07T07:44:45;17.58;;;6.18;;
37280;SDS011;23169;41.804;12.596;2023-02-07T07:47:14;17.42;;;7.53;;
37280;SDS011;23169;41.804;12.596;2023-02-07T07:49:43;20.00;;;8.40;;
37280;SDS011;23169;41.804;12.596;2023-02-07T07:52:11;20.30;;;8.02;;
37280;SDS011;23169;41.804;12.596;2023-02-07T07:54:40;19.10;;;7.50;;
37280;SDS011;23169;41.804;12.596;2023-02-07T07:57:10;14.23;;;6.38;;
37280;SDS011;23169;41.804;12.596;2023-02-07T07:59:38;13.40;;;5.63;;
37280;SDS011;23169;41.804;12.596;2023-02-07T08:02:13;13.55;;;5.38;;
37280;SDS011;23169;41.804;12.596;2023-02-07T08:04:42;14.85;;;5.45;;
37280;SDS011;23169;41.804;12.596;2023-02-07T08:07:11;16.95;;;6.00;;
37280;SDS011;23169;41.804;12.596;2023-02-07T08:09:39;12.82;;;5.63;;
37280;SDS011;23169;41.804;12.596;2023-02-07T08:12:08;16.85;;;6.00;;
37280;SDS011;23169;41.804;12.596;2023-02-07T08:14:38;12.63;;;5.25;;
37280;SDS011;23169;41.804;12.596;2023-02-07T08:17:06;15.05;;;5.10;;
37280;SDS011;23169;41.804;12.596;2023-02-07T08:19:35;13.25;;;4.93;;
37280;SDS011;23169;41.804;12.596;2023-02-07T08:22:05;11.77;;;4.30;;
37280;SDS011;23169;41.804;12.596;2023-02-07T08:24:33;15.15;;;5.03;;
37280;SDS011;23169;41.804;12.596;2023-02-07T08:27:02;11.80;;;5.15;;
37280;SDS011;23169;41.804;12.596;2023-02-07T08:29:31;11.88;;;5.40;;
37280;SDS011;23169;41.804;12.596;2023-02-07T08:31:59;13.95;;;5.80;;
37280;SDS011;23169;41.804;12.596;2023-02-07T08:34:29;13.70;;;5.95;;
37280;SDS011;23169;41.804;12.596;2023-02-07T08:37:04;16.02;;;5.72;;
37280;SDS011;23169;41.804;12.596;2023-02-07T08:39:34;14.73;;;5.13;;
37280;SDS011;23169;41.804;12.596;2023-02-07T08:42:03;12.52;;;5.25;;
37280;SDS011;23169;41.804;12.596;2023-02-07T08:44:34;12.10;;;5.20;;
37280;SDS011;23169;41.804;12.596;2023-02-07T08:47:04;15.80;;;5.82;;
37280;SDS011;23169;41.804;12.596;2023-02-07T08:49:33;10.45;;;5.07;;
37280;SDS011;23169;41.804;12.596;2023-02-07T08:52:01;10.95;;;5.78;;
37280;SDS011;23169;41.804;12.596;2023-02-07T08:54:30;13.95;;;5.38;;
37280;SDS011;23169;41.804;12.596;2023-02-07T08:56:58;15.88;;;6.05;;
37280;SDS011;23169;41.804;12.596;2023-02-07T08:59:26;15.38;;;5.63;;
37280;SDS011;23169;41.804;12.596;2023-02-07T09:01:57;13.48;;;5.53;;
37280;SDS011;23169;41.804;12.596;2023-02-07T09:04:26;17.77;;;5.75;;
37280;SDS011;23169;41.804;12.596;2023-02-07T09:06:54;12.50;;;6.10;;
37280;SDS011;23169;41.804;12.596;2023-02-07T09:09:22;18.83;;;6.45;;
37280;SDS011;23169;41.804;12.596;2023-02-07T09:11:51;13.88;;;5.57;;
37280;SDS011;23169;41.804;12.596;2023-02-07T09:14:20;12.05;;;5.45;;
37280;SDS011;23169;41.804;12.596;2023-02-07T09:16:49;12.50;;;5.35;;
37280;SDS011;23169;41.804;12.596;2023-02-07T09:19:18;15.07;;;5.78;;
37280;SDS011;23169;41.804;12.596;2023-02-07T09:21:46;11.77;;;4.97;;
37280;SDS011;23169;41.804;12.596;2023-02-07T09:24:15;15.23;;;5.43;;
37280;SDS011;23169;41.804;12.596;2023-02-07T09:26:43;15.38;;;5.20;;
37280;SDS011;23169;41.804;12.596;2023-02-07T09:29:13;12.57;;;5.00;;
37280;SDS011;23169;41.804;12.596;2023-02-07T09:31:43;12.98;;;4.60;;
37280;SDS011;23169;41.804;12.596;2023-02-07T09:34:11;13.45;;;5.13;;
37280;SDS011;23169;41.804;12.596;2023-02-07T09:36:44;10.07;;;5.07;;
37280;SDS011;23169;41.804;12.596;2023-02-07T09:39:12;11.90;;;4.75;;
37280;SDS011;23169;41.804;12.596;2023-02-07T09:44:46;13.35;;;5.53;;
37280;SDS011;23169;41.804;12.596;2023-02-07T09:47:17;12.05;;;4.90;;
37280;SDS011;23169;41.804;12.596;2023-02-07T09:52:34;13.02;;;5.30;;
37280;SDS011;23169;41.804;12.596;2023-02-07T09:55:07;14.98;;;6.32;;
37280;SDS011;23169;41.804;12.596;2023-02-07T09:58:08;13.73;;;6.50;;
37280;SDS011;23169;41.804;12.596;2023-02-07T10:00:41;16.17;;;5.68;;
37280;SDS011;23169;41.804;12.596;2023-02-07T10:03:16;16.67;;;5.75;;
37280;SDS011;23169;41.804;12.596;2023-02-07T10:05:59;16.98;;;5.82;;
37280;SDS011;23169;41.804;12.596;2023-02-07T10:08:32;17.10;;;5.30;;
37280;SDS011;23169;41.804;12.596;2023-02-07T10:19:25;9.63;;;5.07;;
37280;SDS011;23169;41.804;12.596;2023-02-07T10:22:25;9.13;;;4.60;;
37280;SDS011;23169;41.804;12.596;2023-02-07T10:25:23;11.32;;;4.85;;
37280;SDS011;23169;41.804;12.596;2023-02-07T10:29:07;13.27;;;4.80;;
37280;SDS011;23169;41.804;12.596;2023-02-07T10:31:18;10.20;;;4.95;;
37280;SDS011;23169;41.804;12.596;2023-02-07T10:33:51;9.15;;;4.60;;
37280;SDS011;23169;41.804;12.596;2023-02-07T10:36:30;11.10;;;4.88;;
37280;SDS011;23169;41.804;12.596;2023-02-07T10:39:03;11.98;;;5.22;;
37280;SDS011;23169;41.804;12.596;2023-02-07T10:41:39;11.85;;;5.13;;
37280;SDS011;23169;41.804;12.596;2023-02-07T10:44:10;10.55;;;5.15;;
37280;SDS011;23169;41.804;12.596;2023-02-07T10:46:42;11.30;;;4.75;;
37280;SDS011;23169;41.804;12.596;2023-02-07T10:49:22;11.65;;;5.05;;
37280;SDS011;23169;41.804;12.596;2023-02-07T10:51:54;8.93;;;4.85;;
37280;SDS011;23169;41.804;12.596;2023-02-07T10:54:29;14.88;;;5.28;;
37280;SDS011;23169;41.804;12.596;2023-02-07T10:57:20;12.13;;;5.00;;
37280;SDS011;23169;41.804;12.596;2023-02-07T10:59:56;16.83;;;5.60;;
37280;SDS011;23169;41.804;12.596;2023-02-07T11:05:04;10.85;;;5.00;;
37280;SDS011;23169;41.804;12.596;2023-02-07T11:08:00;11.57;;;5.00;;
37280;SDS011;23169;41.804;12.596;2023-02-07T11:13:00;14.95;;;6.13;;
37280;SDS011;23169;41.804;12.596;2023-02-07T11:15:31;12.70;;;5.93;;
37280;SDS011;23169;41.804;12.596;2023-02-07T11:18:06;16.48;;;6.50;;
37280;SDS011;23169;41.804;12.596;2023-02-07T11:20:36;10.73;;;5.07;;
37280;SDS011;23169;41.804;12.596;2023-02-07T11:23:10;13.10;;;5.47;;
37280;SDS011;23169;41.804;12.596;2023-02-07T11:25:43;11.55;;;4.60;;
37280;SDS011;23169;41.804;12.596;2023-02-07T11:28:21;11.23;;;5.13;;
37280;SDS011;23169;41.804;12.596;2023-02-07T11:31:00;12.68;;;5.60;;
37280;SDS011;23169;41.804;12.596;2023-02-07T11:33:41;11.00;;;4.95;;
37280;SDS011;23169;41.804;12.596;2023-02-07T11:36:19;11.27;;;5.38;;
37280;SDS011;23169;41.804;12.596;2023-02-07T11:38:55;11.30;;;5.30;;
37280;SDS011;23169;41.804;12.596;2023-02-07T11:41:27;10.98;;;5.32;;
37280;SDS011;23169;41.804;12.596;2023-02-07T11:44:02;13.93;;;5.53;;
37280;SDS011;23169;41.804;12.596;2023-02-07T11:46:43;11.30;;;5.32;;
37280;SDS011;23169;41.804;12.596;2023-02-07T11:49:24;14.57;;;5.53;;
37280;SDS011;23169;41.804;12.596;2023-02-07T11:51:57;13.93;;;5.78;;
37280;SDS011;23169;41.804;12.596;2023-02-07T11:54:27;14.38;;;5.70;;
37280;SDS011;23169;41.804;12.596;2023-02-07T11:57:11;12.82;;;5.22;;
37280;SDS011;23169;41.804;12.596;2023-02-07T11:59:45;11.25;;;5.15;;
37280;SDS011;23169;41.804;12.596;2023-02-07T12:02:19;11.80;;;5.13;;
37280;SDS011;23169;41.804;12.596;2023-02-07T12:04:52;13.98;;;5.63;;
37280;SDS011;23169;41.804;12.596;2023-02-07T12:07:37;13.95;;;5.47;;
37280;SDS011;23169;41.804;12.596;2023-02-07T12:10:10;12.38;;;5.22;;
37280;SDS011;23169;41.804;12.596;2023-02-07T12:12:45;13.27;;;5.28;;
37280;SDS011;23169;41.804;12.596;2023-02-07T12:15:22;8.15;;;4.90;;
37280;SDS011;23169;41.804;12.596;2023-02-07T12:21:09;12.75;;;5.80;;
37280;SDS011;23169;41.804;12.596;2023-02-07T12:24:08;12.52;;;5.45;;
37280;SDS011;23169;41.804;12.596;2023-02-07T12:35:02;12.07;;;6.22;;
37280;SDS011;23169;41.804;12.596;2023-02-07T12:37:36;10.02;;;5.30;;
37280;SDS011;23169;41.804;12.596;2023-02-07T12:40:18;12.05;;;5.72;;
37280;SDS011;23169;41.804;12.596;2023-02-07T12:42:53;14.30;;;5.80;;
37280;SDS011;23169;41.804;12.596;2023-02-07T12:45:49;12.00;;;5.53;;
37280;SDS011;23169;41.804;12.596;2023-02-07T12:57:23;10.55;;;5.95;;
37280;SDS011;23169;41.804;12.596;2023-02-07T13:05:28;13.43;;;5.70;;
37280;SDS011;23169;41.804;12.596;2023-02-07T13:08:35;10.82;;;5.25;;
37280;SDS011;23169;41.804;12.596;2023-02-07T13:11:23;13.00;;;5.97;;
37280;SDS011;23169;41.804;12.596;2023-02-07T13:23:16;10.85;;;5.60;;
37280;SDS011;23169;41.804;12.596;2023-02-07T13:25:48;11.35;;;5.97;;
37280;SDS011;23169;41.804;12.596;2023-02-07T13:32:18;11.57;;;6.07;;
37280;SDS011;23169;41.804;12.596;2023-02-07T13:34:34;12.57;;;5.78;;
37280;SDS011;23169;41.804;12.596;2023-02-07T13:37:30;12.90;;;5.75;;
37280;SDS011;23169;41.804;12.596;2023-02-07T13:40:23;10.00;;;5.13;;
37280;SDS011;23169;41.804;12.596;2023-02-07T13:48:43;10.18;;;5.82;;
37280;SDS011;23169;41.804;12.596;2023-02-07T13:56:55;9.00;;;5.40;;
37280;SDS011;23169;41.804;12.596;2023-02-07T14:02:45;11.98;;;6.00;;
37280;SDS011;23169;41.804;12.596;2023-02-07T14:05:18;8.35;;;5.18;;
37280;SDS011;23169;41.804;12.596;2023-02-07T14:07:54;11.27;;;5.80;;
37280;SDS011;23169;41.804;12.596;2023-02-07T14:10:41;13.23;;;6.13;;
37280;SDS011;23169;41.804;12.596;2023-02-07T14:16:01;13.50;;;6.00;;
37280;SDS011;23169;41.804;12.596;2023-02-07T14:18:42;10.80;;;5.90;;
37280;SDS011;23169;41.804;12.596;2023-02-07T14:34:29;11.48;;;5.10;;
37280;SDS011;23169;41.804;12.596;2023-02-07T14:36:59;10.85;;;5.32;;
37280;SDS011;23169;41.804;12.596;2023-02-07T14:39:29;11.27;;;5.07;;
37280;SDS011;23169;41.804;12.596;2023-02-07T14:42:16;9.32;;;5.28;;
37280;SDS011;23169;41.804;12.596;2023-02-07T14:44:48;10.63;;;5.50;;
37280;SDS011;23169;41.804;12.596;2023-02-07T14:47:19;8.77;;;4.90;;
37280;SDS011;23169;41.804;12.596;2023-02-07T14:49:55;12.05;;;5.18;;
37280;SDS011;23169;41.804;12.596;2023-02-07T14:52:28;11.20;;;5.40;;
37280;SDS011;23169;41.804;12.596;2023-02-07T14:54:59;10.05;;;5.53;;
37280;SDS011;23169;41.804;12.596;2023-02-07T15:05:21;12.82;;;5.20;;
37280;SDS011;23169;41.804;12.596;2023-02-07T15:08:04;11.50;;;5.38;;
37280;SDS011;23169;41.804;12.596;2023-02-07T15:13:19;10.35;;;4.82;;
37280;SDS011;23169;41.804;12.596;2023-02-07T15:18:24;10.15;;;5.10;;
37280;SDS011;23169;41.804;12.596;2023-02-07T15:20:56;8.75;;;4.40;;
37280;SDS011;23169;41.804;12.596;2023-02-07T15:23:27;10.77;;;4.95;;
37280;SDS011;23169;41.804;12.596;2023-02-07T15:26:03;9.32;;;5.13;;
37280;SDS011;23169;41.804;12.596;2023-02-07T15:28:34;10.25;;;5.38;;
37280;SDS011;23169;41.804;12.596;2023-02-07T15:33:55;9.45;;;5.15;;
37280;SDS011;23169;41.804;12.596;2023-02-07T15:36:26;10.70;;;5.50;;
37280;SDS011;23169;41.804;12.596;2023-02-07T15:38:58;10.48;;;5.28;;
37280;SDS011;23169;41.804;12.596;2023-02-07T15:41:28;7.25;;;4.22;;
37280;SDS011;23169;41.804;12.596;2023-02-07T15:44:03;8.27;;;4.60;;
37280;SDS011;23169;41.804;12.596;2023-02-07T15:51:54;7.57;;;4.55;;
37280;SDS011;23169;41.804;12.596;2023-02-07T15:54:45;9.30;;;4.80;;
37280;SDS011;23169;41.804;12.596;2023-02-07T15:59:54;9.23;;;4.70;;
37280;SDS011;23169;41.804;12.596;2023-02-07T16:02:28;7.20;;;4.32;;
37280;SDS011;23169;41.804;12.596;2023-02-07T16:04:58;7.00;;;4.57;;
37280;SDS011;23169;41.804;12.596;2023-02-07T16:07:35;7.22;;;4.40;;
37280;SDS011;23169;41.804;12.596;2023-02-07T16:21:16;11.32;;;4.82;;
37280;SDS011;23169;41.804;12.596;2023-02-07T16:23:48;10.85;;;4.90;;
37280;SDS011;23169;41.804;12.596;2023-02-07T16:26:24;9.57;;;4.38;;
37280;SDS011;23169;41.804;12.596;2023-02-07T16:28:55;8.40;;;4.40;;
37280;SDS011;23169;41.804;12.596;2023-02-07T16:31:23;8.25;;;4.53;;
37280;SDS011;23169;41.804;12.596;2023-02-07T16:33:51;7.72;;;4.45;;
37280;SDS011;23169;41.804;12.596;2023-02-07T16:36:20;9.95;;;4.20;;
37280;SDS011;23169;41.804;12.596;2023-02-07T16:38:48;11.88;;;4.70;;
37280;SDS011;23169;41.804;12.596;2023-02-07T16:41:24;12.57;;;4.88;;
37280;SDS011;23169;41.804;12.596;2023-02-07T16:44:01;8.27;;;4.45;;
37280;SDS011;23169;41.804;12.596;2023-02-07T16:46:33;11.77;;;5.18;;
37280;SDS011;23169;41.804;12.596;2023-02-07T16:49:13;7.53;;;4.50;;
37280;SDS011;23169;41.804;12.596;2023-02-07T16:51:49;12.55;;;5.00;;
37280;SDS011;23169;41.804;12.596;2023-02-07T16:54:18;12.85;;;5.10;;
37280;SDS011;23169;41.804;12.596;2023-02-07T16:56:47;12.93;;;5.50;;
37280;SDS011;23169;41.804;12.596;2023-02-07T16:59:20;12.85;;;5.15;;
37280;SDS011;23169;41.804;12.596;2023-02-07T17:01:50;10.77;;;5.40;;
37280;SDS011;23169;41.804;12.596;2023-02-07T17:04:21;11.75;;;5.30;;
37280;SDS011;23169;41.804;12.596;2023-02-07T17:06:49;15.57;;;6.25;;
37280;SDS011;23169;41.804;12.596;2023-02-07T17:09:19;14.55;;;5.88;;
37280;SDS011;23169;41.804;12.596;2023-02-07T17:11:48;13.43;;;6.20;;
37280;SDS011;23169;41.804;12.596;2023-02-07T17:14:17;15.32;;;6.93;;
37280;SDS011;23169;41.804;12.596;2023-02-07T17:16:46;19.90;;;9.38;;
37280;SDS011;23169;41.804;12.596;2023-02-07T17:19:19;19.85;;;8.90;;
37280;SDS011;23169;41.804;12.596;2023-02-07T17:21:52;16.80;;;6.80;;
37280;SDS011;23169;41.804;12.596;2023-02-07T17:24:21;26.23;;;9.70;;
37280;SDS011;23169;41.804;12.596;2023-02-07T17:26:50;24.50;;;9.75;;
37280;SDS011;23169;41.804;12.596;2023-02-07T17:29:21;26.17;;;10.95;;
37280;SDS011;23169;41.804;12.596;2023-02-07T17:31:49;32.85;;;13.60;;
37280;SDS011;23169;41.804;12.596;2023-02-07T17:34:17;29.38;;;12.52;;
37280;SDS011;23169;41.804;12.596;2023-02-07T17:36:49;31.27;;;13.05;;
37280;SDS011;23169;41.804;12.596;2023-02-07T17:39:18;32.30;;;15.48;;
37280;SDS011;23169;41.804;12.596;2023-02-07T17:41:47;31.90;;;15.07;;
37280;SDS011;23169;41.804;12.596;2023-02-07T17:44:15;26.58;;;12.82;;
37280;SDS011;23169;41.804;12.596;2023-02-07T17:46:48;32.72;;;14.23;;
37280;SDS011;23169;41.804;12.596;2023-02-07T17:49:18;27.23;;;11.65;;